Time;durP1;ratioP1;P1;durP2;ratioP2;P2;SDS_P1;SDS_P2;PMS_P1;PMS_P2;Temp;Humidity;BMP_temperature;BMP_pressure;BME280_temperature;BME280_humidity;BME280_pressure;Samples;Min_cycle;Max_cycle;Signal;HPM_P1;HPM_P2
2023/05/11 00:01:32;;;;;;;4.85;1.38;;;11.90;99.90;;;;;;4969964;28;20487;-74
2023/05/11 00:03:58;;;;;;;1.13;0.90;;;12.00;99.90;;;;;;4960643;28;20141;-74
2023/05/11 00:06:24;;;;;;;0.57;0.57;;;11.90;99.90;;;;;;4980863;28;20452;-74
2023/05/11 00:08:49;;;;;;;1.08;0.98;;;11.90;99.90;;;;;;4957023;28;20129;-74
2023/05/11 00:11:17;;;;;;;1.67;1.58;;;11.90;99.90;;;;;;4977508;28;20137;-74
2023/05/11 00:13:43;;;;;;;1.83;1.73;;;11.90;99.90;;;;;;4963806;28;20082;-74
2023/05/11 00:16:09;;;;;;;1.50;1.15;;;11.90;99.90;;;;;;4981726;28;20046;-74
2023/05/11 00:18:35;;;;;;;0.80;0.80;;;12.00;99.90;;;;;;4982869;28;20042;-73
2023/05/11 00:21:00;;;;;;;0.50;0.50;;;12.00;99.90;;;;;;4984516;28;20500;-73
2023/05/11 00:23:26;;;;;;;0.35;0.35;;;12.00;99.90;;;;;;4953340;28;20055;-74
2023/05/11 00:25:51;;;;;;;0.28;0.28;;;12.00;99.90;;;;;;4989281;28;20058;-74
2023/05/11 00:28:17;;;;;;;0.60;0.60;;;11.90;99.90;;;;;;4975348;28;20397;-74
2023/05/11 00:30:44;;;;;;;0.70;0.70;;;11.90;99.90;;;;;;4985327;28;20046;-74
2023/05/11 00:33:10;;;;;;;0.30;0.30;;;11.90;99.90;;;;;;4964405;28;20487;-74
2023/05/11 00:35:35;;;;;;;2.05;1.85;;;12.00;99.90;;;;;;4968719;28;20540;-74
2023/05/11 00:38:01;;;;;;;1.17;1.08;;;11.90;99.90;;;;;;4967789;28;20144;-74
2023/05/11 00:40:27;;;;;;;0.55;0.55;;;11.90;99.90;;;;;;4971860;28;20045;-74
2023/05/11 00:42:53;;;;;;;0.65;0.50;;;12.00;99.90;;;;;;4984413;28;20129;-74
2023/05/11 00:45:18;;;;;;;0.80;0.80;;;11.90;99.90;;;;;;4983132;28;20046;-74
2023/05/11 00:47:44;;;;;;;1.17;0.73;;;11.90;99.90;;;;;;4978341;28;20130;-74
2023/05/11 00:50:10;;;;;;;0.68;0.68;;;11.90;99.90;;;;;;4964364;28;20050;-74
2023/05/11 00:52:35;;;;;;;0.80;0.70;;;11.90;99.90;;;;;;4963725;28;20402;-74
2023/05/11 00:55:01;;;;;;;0.77;0.77;;;11.90;99.90;;;;;;4948951;28;20100;-74
2023/05/11 00:57:29;;;;;;;2.05;1.58;;;11.90;99.90;;;;;;4960579;28;20149;-74
2023/05/11 00:59:55;;;;;;;3.25;2.95;;;11.70;99.90;;;;;;4959128;28;20093;-74
2023/05/11 01:02:20;;;;;;;1.40;1.30;;;11.70;99.90;;;;;;4982319;28;20050;-74
2023/05/11 01:04:46;;;;;;;2.63;2.03;;;11.60;99.90;;;;;;4976722;28;20827;-74
2023/05/11 01:07:22;;;;;;;2.97;1.20;;;11.50;99.90;;;;;;4984788;28;20046;-74
2023/05/11 01:10:16;;;;;;;1.33;1.23;;;11.50;99.90;;;;;;4984726;28;20096;-74
2023/05/11 01:13:12;;;;;;;6.05;2.80;;;11.50;99.90;;;;;;4965097;28;20048;-74
2023/05/11 01:15:45;;;;;;;1.52;1.42;;;11.40;99.90;;;;;;4954218;28;20102;-74
2023/05/11 01:18:23;;;;;;;2.28;2.08;;;11.40;99.90;;;;;;4962319;28;20050;-74
2023/05/11 01:20:52;;;;;;;1.02;1.02;;;11.40;99.90;;;;;;4973449;28;20042;-74
2023/05/11 01:23:18;;;;;;;3.05;2.80;;;11.30;99.90;;;;;;4967666;28;20050;-74
2023/05/11 01:26:07;;;;;;;0.88;0.88;;;11.30;99.90;;;;;;4971995;28;20116;-73
2023/05/11 01:29:11;;;;;;;2.53;2.22;;;11.30;99.90;;;;;;4994180;28;20628;-74
2023/05/11 01:31:40;;;;;;;0.52;0.52;;;11.40;99.90;;;;;;4974149;28;20096;-73
2023/05/11 01:34:18;;;;;;;0.80;0.80;;;11.50;99.90;;;;;;4973197;28;20519;-74
2023/05/11 01:36:51;;;;;;;;;;;11.50;99.90;;;;;;4975566;28;20050;-74
2023/05/11 01:39:23;;;;;;;0.22;0.22;;;11.50;99.90;;;;;;4978389;28;19926;-74
2023/05/11 01:41:54;;;;;;;1.15;1.08;;;11.50;99.90;;;;;;4973234;28;20053;-74
2023/05/11 01:44:24;;;;;;;3.00;2.80;;;11.50;99.90;;;;;;4974900;28;20419;-73
2023/05/11 01:46:50;;;;;;;2.00;1.80;;;11.40;99.90;;;;;;4974005;28;20057;-74
2023/05/11 01:49:16;;;;;;;1.10;1.10;;;11.40;99.90;;;;;;4964966;28;20050;-74
2023/05/11 01:51:45;;;;;;;4.38;3.55;;;11.40;99.90;;;;;;4972393;28;20100;-74
2023/05/11 01:54:11;;;;;;;1.73;1.63;;;11.40;99.90;;;;;;4981514;28;20058;-74
2023/05/11 01:56:40;;;;;;;2.08;1.88;;;11.40;99.90;;;;;;4973610;28;20086;-74
2023/05/11 01:59:06;;;;;;;2.85;1.92;;;11.40;99.90;;;;;;4970647;28;20054;-74
2023/05/11 02:01:37;;;;;;;3.72;1.75;;;11.30;99.90;;;;;;4973426;28;20046;-74
2023/05/11 02:04:04;;;;;;;3.63;3.33;;;11.20;99.90;;;;;;4976310;28;20525;-74
2023/05/11 02:06:31;;;;;;;3.45;3.15;;;11.20;99.90;;;;;;4964068;28;20062;-74
2023/05/11 02:08:58;;;;;;;2.78;2.58;;;11.20;99.90;;;;;;4964793;28;20109;-74
2023/05/11 02:11:26;;;;;;;3.65;2.13;;;11.20;99.90;;;;;;4974194;28;20054;-74
2023/05/11 02:13:54;;;;;;;2.45;2.30;;;11.20;99.90;;;;;;4972904;28;20045;-73
2023/05/11 02:16:20;;;;;;;2.40;2.22;;;11.20;99.90;;;;;;4970965;28;20054;-74
2023/05/11 02:18:47;;;;;;;2.08;1.88;;;11.10;99.90;;;;;;4987999;28;20093;-74
2023/05/11 02:21:15;;;;;;;6.10;3.97;;;11.20;99.90;;;;;;4988483;28;20415;-74
2023/05/11 02:23:42;;;;;;;6.03;2.85;;;11.10;99.90;;;;;;4971011;28;20086;-74
2023/05/11 02:26:09;;;;;;;8.27;3.22;;;11.20;99.90;;;;;;4986912;28;20137;-74
2023/05/11 02:28:35;;;;;;;4.53;2.30;;;11.10;99.90;;;;;;4983646;28;20080;-74
2023/05/11 02:31:08;;;;;;;11.23;2.70;;;11.10;99.90;;;;;;4982385;28;20101;-74
2023/05/11 02:33:42;;;;;;;3.03;1.50;;;11.10;99.90;;;;;;4971783;28;20722;-74
2023/05/11 02:36:09;;;;;;;1.70;1.60;;;11.10;99.90;;;;;;4968706;28;20058;-74
2023/05/11 02:38:37;;;;;;;4.93;3.07;;;11.10;99.90;;;;;;4964228;28;20444;-74
2023/05/11 02:41:12;;;;;;;7.18;3.97;;;11.10;99.90;;;;;;4981473;28;21129;-74
2023/05/11 02:43:47;;;;;;;1.85;1.75;;;11.10;99.90;;;;;;4974917;28;20042;-74
2023/05/11 02:46:15;;;;;;;4.80;3.28;;;11.00;99.90;;;;;;4973226;28;20097;-74
2023/05/11 02:48:49;;;;;;;6.53;5.03;;;11.00;99.90;;;;;;4971550;28;20614;-74
2023/05/11 02:51:17;;;;;;;5.32;4.43;;;11.00;99.90;;;;;;4974562;28;20754;-74
2023/05/11 02:53:44;;;;;;;3.55;2.92;;;11.00;99.90;;;;;;4983028;28;20089;-74
2023/05/11 02:56:11;;;;;;;8.40;2.47;;;11.00;99.90;;;;;;4973685;28;20058;-74
2023/05/11 02:58:37;;;;;;;3.22;2.75;;;11.00;99.90;;;;;;4973063;28;20293;-74
2023/05/11 03:01:06;;;;;;;1.50;1.42;;;11.00;99.90;;;;;;4973284;28;20120;-74
2023/05/11 03:03:31;;;;;;;6.03;3.55;;;11.00;99.90;;;;;;4973088;28;20050;-74
2023/05/11 03:05:57;;;;;;;3.40;3.08;;;11.00;99.90;;;;;;4971240;28;20123;-74
2023/05/11 03:08:23;;;;;;;6.40;3.75;;;11.00;99.90;;;;;;4970141;28;20569;-74
2023/05/11 03:10:50;;;;;;;3.55;3.20;;;11.00;99.90;;;;;;4974780;28;20042;-74
2023/05/11 03:13:17;;;;;;;1.92;1.83;;;11.00;99.90;;;;;;4971953;28;20046;-74
2023/05/11 03:15:43;;;;;;;1.48;1.38;;;11.00;99.90;;;;;;4972365;28;20605;-74
2023/05/11 03:18:10;;;;;;;2.30;2.10;;;11.00;99.90;;;;;;4971596;28;20133;-74
2023/05/11 03:20:39;;;;;;;5.50;3.42;;;11.00;99.90;;;;;;4971348;28;20046;-74
2023/05/11 03:23:05;;;;;;;7.30;5.00;;;11.00;99.90;;;;;;4966329;28;20777;-73
2023/05/11 03:25:31;;;;;;;3.50;3.20;;;11.00;99.90;;;;;;4984500;28;20050;-74
2023/05/11 03:27:59;;;;;;;9.98;3.92;;;11.00;99.90;;;;;;4989298;28;20097;-74
2023/05/11 03:30:27;;;;;;;3.40;3.15;;;11.00;99.90;;;;;;4972474;28;20055;-74
2023/05/11 03:32:52;;;;;;;4.38;4.03;;;11.00;99.90;;;;;;4988349;28;20058;-74
2023/05/11 03:35:18;;;;;;;4.55;4.15;;;10.90;99.90;;;;;;4994309;28;20501;-74
2023/05/11 03:37:45;;;;;;;3.38;3.13;;;11.00;99.90;;;;;;4969747;28;20053;-74
2023/05/11 03:40:14;;;;;;;4.35;3.95;;;11.00;99.90;;;;;;4949199;28;20058;-74
2023/05/11 03:42:42;;;;;;;18.38;4.57;;;11.00;99.90;;;;;;4968420;28;20074;-74
2023/05/11 03:45:12;;;;;;;4.05;3.75;;;10.90;99.90;;;;;;4969783;28;20676;-74
2023/05/11 03:47:39;;;;;;;6.35;5.60;;;10.90;99.90;;;;;;4966328;28;20069;-74
2023/05/11 03:50:07;;;;;;;2.13;1.95;;;10.90;99.90;;;;;;4980585;28;20059;-74
2023/05/11 03:52:34;;;;;;;3.80;3.50;;;10.90;99.90;;;;;;4988859;28;20089;-74
2023/05/11 03:55:01;;;;;;;4.07;3.70;;;10.90;99.90;;;;;;4970582;28;20522;-74
2023/05/11 03:57:26;;;;;;;8.98;3.25;;;10.90;99.90;;;;;;4983261;28;20046;-74
2023/05/11 03:59:52;;;;;;;2.13;2.00;;;10.90;99.90;;;;;;4988238;28;20084;-74
2023/05/11 04:02:18;;;;;;;3.13;2.45;;;10.90;99.90;;;;;;4988414;28;20447;-74
2023/05/11 04:04:43;;;;;;;2.97;2.78;;;10.90;99.90;;;;;;4971952;28;20505;-74
2023/05/11 04:07:09;;;;;;;8.52;3.88;;;10.90;99.90;;;;;;4987907;28;20073;-74
2023/05/11 04:09:35;;;;;;;4.10;3.38;;;10.80;99.90;;;;;;4988927;28;20085;-74
2023/05/11 04:12:02;;;;;;;3.45;3.25;;;10.80;99.90;;;;;;4971193;28;20458;-74
2023/05/11 04:14:27;;;;;;;1.90;1.70;;;10.80;99.90;;;;;;4964456;28;20034;-74
2023/05/11 04:16:53;;;;;;;1.98;1.88;;;10.80;99.90;;;;;;4965712;28;20480;-74
2023/05/11 04:19:18;;;;;;;3.40;3.03;;;10.80;99.90;;;;;;4981675;28;20042;-74
2023/05/11 04:21:45;;;;;;;3.22;2.92;;;10.80;99.90;;;;;;4986060;28;20049;-74
2023/05/11 04:24:11;;;;;;;4.00;3.03;;;10.70;99.90;;;;;;4974520;28;20455;-74
2023/05/11 04:26:36;;;;;;;3.85;3.47;;;10.70;99.90;;;;;;4984081;28;20053;-74
2023/05/11 04:29:02;;;;;;;5.13;2.08;;;10.80;99.90;;;;;;4977495;28;20117;-74
2023/05/11 04:31:29;;;;;;;3.13;2.83;;;10.80;99.90;;;;;;4968871;28;20448;-74
2023/05/11 04:33:54;;;;;;;2.53;1.77;;;10.80;99.90;;;;;;4970111;28;20062;-74
2023/05/11 04:36:21;;;;;;;4.53;4.13;;;10.80;99.90;;;;;;4982556;28;21206;-74
2023/05/11 04:38:47;;;;;;;2.10;1.98;;;10.80;99.90;;;;;;4988958;28;20488;-73
2023/05/11 04:41:13;;;;;;;3.83;3.28;;;10.70;99.90;;;;;;4970614;28;20041;-74
2023/05/11 04:43:39;;;;;;;4.95;3.22;;;10.80;99.90;;;;;;4989056;28;20050;-74
2023/05/11 04:46:05;;;;;;;1.33;1.20;;;10.80;99.90;;;;;;4983193;28;20399;-74
2023/05/11 04:48:31;;;;;;;3.65;3.30;;;10.80;99.90;;;;;;4986575;28;20510;-73
2023/05/11 04:50:56;;;;;;;6.25;2.88;;;10.80;99.90;;;;;;4972527;28;20050;-73
2023/05/11 04:53:22;;;;;;;2.45;1.75;;;10.80;99.90;;;;;;4975900;28;20118;-73
2023/05/11 04:55:49;;;;;;;2.45;2.30;;;10.90;99.90;;;;;;4987905;28;20545;-74
2023/05/11 04:58:15;;;;;;;2.88;2.58;;;10.90;99.90;;;;;;4986692;28;20046;-74
2023/05/11 05:00:40;;;;;;;2.90;2.15;;;10.90;99.90;;;;;;4976391;28;20385;-73
2023/05/11 05:03:06;;;;;;;5.93;4.45;;;10.90;99.90;;;;;;4970515;28;20093;-74
2023/05/11 05:05:32;;;;;;;2.40;2.08;;;10.90;99.90;;;;;;4969759;28;20058;-73
2023/05/11 05:07:58;;;;;;;2.47;1.60;;;10.90;99.90;;;;;;4966806;28;20053;-74
2023/05/11 05:10:24;;;;;;;2.30;1.98;;;11.00;99.90;;;;;;4973612;28;20050;-74
2023/05/11 05:12:49;;;;;;;6.18;1.38;;;10.90;99.90;;;;;;4974897;28;20047;-73
2023/05/11 05:15:15;;;;;;;3.03;2.40;;;11.00;99.90;;;;;;4982085;28;20049;-74
2023/05/11 05:17:41;;;;;;;1.60;1.48;;;11.00;99.90;;;;;;4985641;28;20077;-74
2023/05/11 05:20:07;;;;;;;3.08;2.80;;;11.00;99.90;;;;;;4984619;28;20046;-74
2023/05/11 05:22:33;;;;;;;1.17;1.08;;;11.00;99.90;;;;;;4987764;28;20496;-74
2023/05/11 05:24:58;;;;;;;2.75;2.55;;;11.10;99.90;;;;;;4973791;28;20113;-74
2023/05/11 05:27:24;;;;;;;1.70;1.60;;;11.10;99.90;;;;;;4987975;28;20089;-74
2023/05/11 05:29:50;;;;;;;0.98;0.98;;;11.10;99.90;;;;;;4986387;28;20510;-74
2023/05/11 05:32:17;;;;;;;3.30;3.00;;;11.10;99.90;;;;;;4986355;28;20484;-74
2023/05/11 05:34:45;;;;;;;2.35;2.15;;;11.20;99.90;;;;;;4982054;28;20047;-73
2023/05/11 05:37:11;;;;;;;;;;;11.10;99.90;;;;;;4969695;28;20089;-74
2023/05/11 05:39:37;;;;;;;4.95;1.73;;;11.10;99.90;;;;;;4966296;28;19997;-74
2023/05/11 05:42:02;;;;;;;1.33;1.23;;;11.20;99.90;;;;;;4987767;28;20082;-74
2023/05/11 05:44:28;;;;;;;4.28;2.90;;;11.20;99.90;;;;;;4975130;28;20381;-74
2023/05/11 05:46:54;;;;;;;2.35;2.15;;;11.10;99.90;;;;;;4967655;28;20595;-74
2023/05/11 05:49:20;;;;;;;1.52;1.42;;;11.10;99.90;;;;;;4963979;28;20062;-74
2023/05/11 05:51:45;;;;;;;2.92;2.65;;;11.20;99.90;;;;;;4966711;28;20052;-74
2023/05/11 05:54:13;;;;;;;0.60;0.60;;;11.20;99.90;;;;;;4958609;28;20467;-74
2023/05/11 05:56:39;;;;;;;2.97;2.65;;;11.20;99.90;;;;;;4957534;28;20051;-74
2023/05/11 05:59:07;;;;;;;1.00;0.98;;;11.30;99.90;;;;;;4967472;28;20545;-74
2023/05/11 06:01:34;;;;;;;1.15;1.15;;;11.20;99.90;;;;;;4971972;28;20129;-74
2023/05/11 06:03:59;;;;;;;2.80;2.50;;;11.30;99.90;;;;;;4976188;28;20384;-74
2023/05/11 06:06:26;;;;;;;2.08;1.98;;;11.30;99.90;;;;;;4972457;28;20157;-74
2023/05/11 06:08:52;;;;;;;3.83;1.83;;;11.30;99.90;;;;;;4977841;28;20050;-74
2023/05/11 06:11:17;;;;;;;4.18;3.88;;;11.40;99.90;;;;;;4971450;28;20170;-73
2023/05/11 06:13:43;;;;;;;1.90;1.67;;;11.30;99.90;;;;;;4987781;28;20828;-73
2023/05/11 06:16:08;;;;;;;2.92;2.40;;;11.40;99.90;;;;;;4974428;28;20527;-73
2023/05/11 06:18:35;;;;;;;1.45;1.35;;;11.40;99.90;;;;;;4961181;28;20121;-73
2023/05/11 06:21:00;;;;;;;1.90;1.80;;;11.40;99.90;;;;;;4985171;28;20058;-73
2023/05/11 06:23:26;;;;;;;3.03;2.85;;;11.50;99.90;;;;;;4959543;28;20074;-73
2023/05/11 06:25:51;;;;;;;2.25;1.92;;;11.50;99.90;;;;;;4985363;28;20491;-72
2023/05/11 06:28:17;;;;;;;3.35;2.85;;;11.40;99.90;;;;;;4975099;28;20172;-72
2023/05/11 06:30:43;;;;;;;3.03;2.83;;;11.50;99.90;;;;;;4972484;28;20038;-73
2023/05/11 06:33:08;;;;;;;2.10;1.98;;;11.50;99.90;;;;;;4960878;28;20147;-73
2023/05/11 06:35:36;;;;;;;1.63;1.52;;;11.50;99.90;;;;;;4958625;28;20066;-73
2023/05/11 06:38:03;;;;;;;3.63;1.20;;;11.50;99.90;;;;;;4964110;28;20081;-73
2023/05/11 06:40:28;;;;;;;1.75;1.63;;;11.50;99.90;;;;;;4966050;28;20105;-73
2023/05/11 06:42:54;;;;;;;1.63;1.20;;;11.50;99.90;;;;;;4976175;28;20768;-73
2023/05/11 06:45:20;;;;;;;1.50;1.40;;;11.50;99.90;;;;;;4969027;28;20070;-73
2023/05/11 06:47:46;;;;;;;2.03;1.88;;;11.60;99.90;;;;;;4970249;28;20054;-73
2023/05/11 06:50:12;;;;;;;2.22;1.98;;;11.60;99.90;;;;;;4988638;28;20104;-73
2023/05/11 06:52:37;;;;;;;4.70;2.90;;;11.60;99.90;;;;;;4970627;28;20099;-73
2023/05/11 06:55:03;;;;;;;5.05;2.85;;;11.60;99.90;;;;;;4972465;28;20046;-73
2023/05/11 06:57:29;;;;;;;1.73;1.60;;;11.60;99.90;;;;;;4971122;28;20038;-73
2023/05/11 06:59:55;;;;;;;1.13;1.10;;;11.70;99.90;;;;;;4975285;28;20061;-73
2023/05/11 07:02:20;;;;;;;2.72;1.95;;;11.70;99.90;;;;;;4972944;28;20653;-73
2023/05/11 07:04:46;;;;;;;6.45;5.10;;;11.70;99.90;;;;;;4972094;28;20057;-73
2023/05/11 07:07:11;;;;;;;4.60;2.80;;;11.70;99.90;;;;;;4971684;28;20561;-73
2023/05/11 07:09:37;;;;;;;4.25;3.25;;;11.70;99.90;;;;;;4964207;28;20517;-73
2023/05/11 07:12:03;;;;;;;2.65;2.45;;;11.70;99.90;;;;;;4968391;28;20121;-73
2023/05/11 07:14:29;;;;;;;3.13;2.92;;;11.70;99.90;;;;;;4971144;28;20061;-73
2023/05/11 07:16:54;;;;;;;4.60;2.78;;;11.70;99.90;;;;;;4967453;28;20042;-73
2023/05/11 07:19:20;;;;;;;1.38;1.30;;;11.70;99.90;;;;;;4986542;28;20385;-73
2023/05/11 07:21:46;;;;;;;2.70;2.50;;;11.70;99.90;;;;;;4980211;28;20089;-73
2023/05/11 07:24:12;;;;;;;3.50;2.67;;;11.70;99.90;;;;;;4988610;28;20050;-74
2023/05/11 07:26:37;;;;;;;3.10;2.17;;;11.70;99.90;;;;;;4970917;28;20486;-73
2023/05/11 07:29:03;;;;;;;1.77;1.67;;;11.70;99.90;;;;;;4971497;28;20363;-74
2023/05/11 07:31:29;;;;;;;2.55;2.35;;;11.70;99.90;;;;;;4969039;28;20042;-73
2023/05/11 07:33:55;;;;;;;2.22;2.03;;;11.70;99.90;;;;;;4964065;28;20046;-74
2023/05/11 07:36:21;;;;;;;1.48;1.38;;;11.70;99.90;;;;;;4971685;28;20058;-73
2023/05/11 07:38:46;;;;;;;0.95;0.95;;;11.80;99.90;;;;;;4971976;28;20049;-73
2023/05/11 07:41:12;;;;;;;3.13;2.25;;;11.80;99.90;;;;;;4971652;28;20072;-73
2023/05/11 07:43:38;;;;;;;1.48;1.27;;;11.80;99.90;;;;;;4971958;28;20042;-73
2023/05/11 07:46:03;;;;;;;2.28;2.13;;;11.90;99.90;;;;;;4972488;28;20057;-73
2023/05/11 07:48:29;;;;;;;1.92;1.83;;;11.90;99.90;;;;;;4971386;28;20097;-74
2023/05/11 07:50:55;;;;;;;2.85;1.25;;;11.90;99.90;;;;;;4968995;28;20120;-73
2023/05/11 07:53:20;;;;;;;0.63;0.63;;;11.90;99.90;;;;;;4963236;28;20126;-73
2023/05/11 07:55:46;;;;;;;0.90;0.77;;;12.00;99.90;;;;;;4968173;28;20051;-73
2023/05/11 07:58:12;;;;;;;1.58;1.52;;;12.00;99.90;;;;;;4975743;28;20046;-73
2023/05/11 08:00:38;;;;;;;0.80;0.80;;;12.10;99.90;;;;;;4984138;28;20042;-73
2023/05/11 08:03:03;;;;;;;1.45;1.42;;;12.20;99.90;;;;;;4966032;28;20050;-73
2023/05/11 08:05:31;;;;;;;1.65;1.55;;;12.20;99.90;;;;;;4957965;28;20054;-73
2023/05/11 08:07:57;;;;;;;1.33;1.23;;;12.30;99.90;;;;;;4959183;28;20062;-73
2023/05/11 08:10:23;;;;;;;2.28;1.83;;;12.40;99.90;;;;;;4975784;28;20514;-74
2023/05/11 08:12:48;;;;;;;1.73;1.63;;;12.40;99.90;;;;;;4986264;28;20165;-73
2023/05/11 08:15:14;;;;;;;6.13;2.92;;;12.50;99.90;;;;;;4969994;28;20070;-73
2023/05/11 08:17:41;;;;;;;1.05;0.85;;;12.60;99.90;;;;;;4971688;28;20062;-73
2023/05/11 08:20:09;;;;;;;2.10;1.70;;;12.60;99.90;;;;;;4970472;28;20558;-73
2023/05/11 08:22:34;;;;;;;1.00;1.00;;;12.60;99.90;;;;;;4987027;28;20132;-73
2023/05/11 08:25:00;;;;;;;0.60;0.60;;;12.60;99.90;;;;;;4988278;28;20227;-73
2023/05/11 08:27:26;;;;;;;0.30;0.30;;;12.70;99.90;;;;;;4971813;28;20049;-74
2023/05/11 08:29:51;;;;;;;0.80;0.77;;;12.70;99.90;;;;;;4987943;28;20414;-73
2023/05/11 08:32:17;;;;;;;1.05;1.05;;;12.70;99.90;;;;;;4988379;28;20042;-74
2023/05/11 08:34:43;;;;;;;0.88;0.88;;;12.70;99.90;;;;;;4987954;28;20089;-74
2023/05/11 08:37:09;;;;;;;0.40;0.40;;;12.80;99.90;;;;;;4971215;28;20054;-74
2023/05/11 08:39:34;;;;;;;0.60;0.60;;;12.70;99.90;;;;;;4970593;28;20484;-74
2023/05/11 08:42:04;;;;;;;0.52;0.52;;;12.80;99.90;;;;;;4983612;28;20046;-74
2023/05/11 08:44:32;;;;;;;0.63;0.63;;;12.80;99.90;;;;;;4969657;28;20058;-74
2023/05/11 08:46:59;;;;;;;0.90;0.90;;;12.80;99.90;;;;;;4967621;28;20058;-74
2023/05/11 08:49:26;;;;;;;0.47;0.47;;;12.80;99.90;;;;;;4952579;28;20137;-74
2023/05/11 08:51:52;;;;;;;0.40;0.40;;;12.80;99.90;;;;;;4953810;28;20480;-74
2023/05/11 08:54:17;;;;;;;0.35;0.35;;;12.90;99.90;;;;;;4972385;28;20066;-74
2023/05/11 08:56:46;;;;;;;0.40;0.40;;;12.90;99.90;;;;;;4974873;28;20055;-74
2023/05/11 08:59:12;;;;;;;0.20;0.20;;;12.90;99.90;;;;;;4955718;28;20132;-74
2023/05/11 09:01:40;;;;;;;0.30;0.30;;;13.00;99.90;;;;;;4958797;28;20051;-74
2023/05/11 09:04:07;;;;;;;0.30;0.30;;;13.00;99.90;;;;;;4944154;28;20117;-74
2023/05/11 09:06:34;;;;;;;0.82;0.82;;;13.00;99.90;;;;;;4975783;28;20057;-74
2023/05/11 09:09:00;;;;;;;0.45;0.45;;;13.00;99.90;;;;;;4954967;28;20059;-74
2023/05/11 09:11:28;;;;;;;0.90;0.90;;;13.10;99.90;;;;;;4962056;28;20043;-74
2023/05/11 09:13:54;;;;;;;0.30;0.30;;;13.00;99.90;;;;;;4982195;28;20089;-73
2023/05/11 09:16:19;;;;;;;0.45;0.45;;;12.90;99.90;;;;;;4954166;28;20344;-73
2023/05/11 09:18:50;;;;;;;0.50;0.50;;;12.80;99.90;;;;;;4976462;28;20520;-73
2023/05/11 09:21:16;;;;;;;0.30;0.30;;;12.80;99.90;;;;;;4969533;28;20754;-73
2023/05/11 09:23:42;;;;;;;0.65;0.60;;;12.90;99.90;;;;;;4958693;28;20525;-74
2023/05/11 09:26:14;;;;;;;0.30;0.30;;;12.80;99.90;;;;;;4968739;28;20059;-74
2023/05/11 09:28:51;;;;;;;0.57;0.35;;;12.90;99.90;;;;;;4971595;28;20114;-74
2023/05/11 09:31:37;;;;;;;0.30;0.30;;;12.90;99.90;;;;;;4970673;28;20047;-74
2023/05/11 09:34:20;;;;;;;0.40;0.40;;;13.00;99.90;;;;;;4971186;28;20054;-73
2023/05/11 09:36:51;;;;;;;0.30;0.30;;;13.00;99.90;;;;;;4973692;28;20050;-74
2023/05/11 09:39:20;;;;;;;0.55;0.55;;;13.00;99.90;;;;;;4975702;28;20069;-73
2023/05/11 09:41:46;;;;;;;0.55;0.52;;;13.10;99.90;;;;;;4973047;28;20090;-73
2023/05/11 09:44:12;;;;;;;0.40;0.40;;;13.10;99.90;;;;;;4952850;28;20054;-73
2023/05/11 09:46:43;;;;;;;0.30;0.30;;;13.10;99.90;;;;;;4967994;28;20046;-73
2023/05/11 09:49:10;;;;;;;0.40;0.40;;;13.20;99.90;;;;;;4967584;28;20087;-73
2023/05/11 09:51:42;;;;;;;0.45;0.45;;;13.20;99.90;;;;;;4986114;28;20105;-73
2023/05/11 09:54:18;;;;;;;0.80;0.75;;;13.30;99.90;;;;;;4952252;28;20088;-73
2023/05/11 09:56:46;;;;;;;0.20;0.20;;;13.30;99.90;;;;;;4954360;28;20455;-74
2023/05/11 09:59:34;;;;;;;0.63;0.63;;;13.40;99.90;;;;;;4967780;28;20050;-73
2023/05/11 10:02:27;;;;;;;0.22;0.22;;;13.50;99.90;;;;;;4967804;28;20126;-73
2023/05/11 10:04:57;;;;;;;0.60;0.60;;;13.60;99.90;;;;;;4969409;28;20042;-73
2023/05/11 10:07:31;;;;;;;0.28;0.28;;;13.60;99.90;;;;;;4984517;28;20038;-73
2023/05/11 10:10:01;;;;;;;0.20;0.20;;;13.70;99.90;;;;;;4966123;28;20062;-73
2023/05/11 10:12:29;;;;;;;0.90;0.90;;;13.80;99.90;;;;;;4959171;28;20094;-74
2023/05/11 10:15:11;;;;;;;1.17;1.08;;;13.80;99.90;;;;;;4966613;28;20065;-73
2023/05/11 10:17:36;;;;;;;1.63;1.52;;;13.80;99.90;;;;;;4961603;28;20560;-73
2023/05/11 10:20:04;;;;;;;1.60;1.50;;;13.90;99.90;;;;;;4968793;28;20046;-73
2023/05/11 10:22:30;;;;;;;1.60;1.00;;;13.90;99.90;;;;;;4980475;28;20043;-73
2023/05/11 10:24:57;;;;;;;0.73;0.73;;;14.00;99.90;;;;;;4971927;28;20478;-73
2023/05/11 10:27:23;;;;;;;2.30;1.67;;;14.00;99.90;;;;;;4972538;28;20117;-74
2023/05/11 10:29:49;;;;;;;1.95;1.85;;;14.00;99.90;;;;;;4972068;28;20052;-74
2023/05/11 10:32:18;;;;;;;2.05;1.90;;;14.10;99.90;;;;;;4969579;28;20104;-73
2023/05/11 10:34:45;;;;;;;4.53;1.83;;;14.10;99.90;;;;;;4972887;28;20153;-74
2023/05/11 10:37:12;;;;;;;4.97;2.97;;;14.20;99.90;;;;;;4974091;28;20050;-74
2023/05/11 10:39:39;;;;;;;0.93;0.93;;;14.20;99.90;;;;;;4979819;28;20046;-75
2023/05/11 10:42:32;;;;;;;2.85;2.65;;;14.10;99.90;;;;;;4988806;28;20046;-73
2023/05/11 10:45:28;;;;;;;2.92;2.35;;;14.20;99.90;;;;;;4966522;28;20047;-75
2023/05/11 10:48:05;;;;;;;3.25;2.63;;;14.20;99.90;;;;;;4984782;28;20066;-74
2023/05/11 10:50:58;;;;;;;3.03;2.83;;;14.30;99.90;;;;;;4984587;28;20054;-74
2023/05/11 10:53:36;;;;;;;1.58;1.38;;;14.40;99.90;;;;;;4990285;28;20129;-74
2023/05/11 10:56:24;;;;;;;4.38;1.85;;;14.40;99.90;;;;;;4984324;28;20432;-74
2023/05/11 10:59:21;;;;;;;2.00;1.58;;;14.50;99.90;;;;;;4979372;28;20110;-74
2023/05/11 11:01:57;;;;;;;1.65;1.55;;;14.50;99.90;;;;;;4981701;28;20050;-74
2023/05/11 11:04:23;;;;;;;3.50;2.08;;;14.50;99.90;;;;;;4985085;28;20062;-74
2023/05/11 11:07:04;;;;;;;2.13;2.00;;;14.60;99.90;;;;;;4971559;28;20144;-74
2023/05/11 11:09:52;;;;;;;1.60;1.50;;;14.60;99.90;;;;;;4990914;28;20038;-74
2023/05/11 11:12:19;;;;;;;4.00;2.90;;;14.70;99.90;;;;;;4961088;28;20061;-74
2023/05/11 11:15:05;;;;;;;1.70;1.60;;;14.70;99.90;;;;;;4983446;28;20050;-74
2023/05/11 11:17:33;;;;;;;1.05;1.05;;;14.70;99.90;;;;;;4982957;28;20050;-74
2023/05/11 11:20:06;;;;;;;3.92;2.40;;;14.80;99.90;;;;;;4985585;28;20062;-74
2023/05/11 11:22:35;;;;;;;2.00;1.80;;;14.90;99.90;;;;;;4977999;28;20042;-74
2023/05/11 11:25:05;;;;;;;2.35;2.17;;;14.90;99.90;;;;;;4972041;28;20046;-74
2023/05/11 11:27:40;;;;;;;1.70;1.60;;;15.00;99.90;;;;;;4989828;28;20125;-73
2023/05/11 11:30:19;;;;;;;1.75;1.65;;;15.10;99.90;;;;;;4975808;28;20652;-74
2023/05/11 11:32:52;;;;;;;1.75;1.65;;;15.20;99.90;;;;;;4964441;28;20042;-74
2023/05/11 11:35:40;;;;;;;1.65;1.55;;;15.30;99.90;;;;;;4988067;28;20042;-74
2023/05/11 11:38:26;;;;;;;2.63;2.08;;;15.40;99.90;;;;;;4962287;28;20126;-74
2023/05/11 11:40:52;;;;;;;2.88;2.67;;;15.50;99.90;;;;;;4973453;28;20084;-74
2023/05/11 11:43:18;;;;;;;1.67;1.58;;;15.50;99.90;;;;;;4971658;28;20043;-74
2023/05/11 11:46:01;;;;;;;2.58;2.38;;;15.50;99.90;;;;;;4987689;28;20550;-74
2023/05/11 11:48:37;;;;;;;2.63;2.42;;;15.60;99.90;;;;;;4968781;28;20559;-74
2023/05/11 11:51:09;;;;;;;6.22;1.75;;;15.60;99.90;;;;;;4950655;28;20097;-74
2023/05/11 11:53:36;;;;;;;4.18;3.88;;;15.70;99.90;;;;;;4970935;28;20035;-74
2023/05/11 11:56:03;;;;;;;2.70;1.50;;;15.70;99.90;;;;;;4952524;28;20055;-75
2023/05/11 11:58:45;;;;;;;0.77;0.60;;;15.70;99.90;;;;;;4951273;28;20575;-74
2023/05/11 12:01:15;;;;;;;1.05;0.95;;;15.80;99.90;;;;;;4969666;28;20058;-74
2023/05/11 12:03:43;;;;;;;1.45;0.98;;;15.90;99.90;;;;;;4951203;28;20684;-73
2023/05/11 12:06:10;;;;;;;4.35;3.08;;;16.00;99.90;;;;;;4953895;28;20045;-73
2023/05/11 12:08:39;;;;;;;2.07;1.27;;;16.00;99.90;;;;;;4968029;28;20051;-73
2023/05/11 12:11:06;;;;;;;2.30;2.10;;;16.00;99.90;;;;;;4969710;28;20101;-73
2023/05/11 12:13:33;;;;;;;2.28;2.17;;;16.20;99.90;;;;;;4955163;28;20046;-74
2023/05/11 12:16:10;;;;;;;1.13;1.10;;;16.30;99.90;;;;;;4951368;28;20050;-74
2023/05/11 12:18:36;;;;;;;1.45;1.38;;;16.20;99.90;;;;;;4937722;28;20051;-73
2023/05/11 12:21:02;;;;;;;1.88;1.77;;;16.20;99.90;;;;;;4935649;28;20062;-73
2023/05/11 12:23:28;;;;;;;1.48;1.38;;;16.20;99.90;;;;;;4949181;28;20061;-73
2023/05/11 12:26:05;;;;;;;0.90;0.90;;;16.20;99.90;;;;;;4952337;28;20403;-73
2023/05/11 12:28:32;;;;;;;0.70;0.70;;;16.10;99.90;;;;;;4951419;28;20051;-73
2023/05/11 12:30:58;;;;;;;1.00;0.90;;;16.10;99.90;;;;;;4946771;28;20061;-73
2023/05/11 12:33:24;;;;;;;2.83;1.45;;;16.00;99.90;;;;;;4949354;28;20043;-73
2023/05/11 12:35:55;;;;;;;1.15;1.15;;;15.90;99.90;;;;;;4946451;28;20133;-73
2023/05/11 12:38:21;;;;;;;1.33;1.25;;;15.80;99.90;;;;;;4948985;28;20941;-73
2023/05/11 12:40:50;;;;;;;1.25;1.15;;;15.80;99.90;;;;;;4970193;28;20129;-73
2023/05/11 12:43:21;;;;;;;1.45;1.05;;;15.70;99.90;;;;;;4951340;28;20137;-73
2023/05/11 12:45:47;;;;;;;1.75;1.65;;;15.70;99.90;;;;;;4967181;28;20162;-73
2023/05/11 12:48:14;;;;;;;1.63;1.33;;;15.70;99.90;;;;;;4974334;28;20065;-73
2023/05/11 12:50:44;;;;;;;0.45;0.45;;;15.60;99.90;;;;;;4948764;28;20228;-73
2023/05/11 12:53:17;;;;;;;1.23;1.13;;;15.60;99.90;;;;;;4951300;28;20134;-73
2023/05/11 12:55:43;;;;;;;0.95;0.80;;;15.60;99.90;;;;;;4964715;28;20107;-73